Kadena Air Base
RODN : now visible

Airfield :











YOU CAN JOIN US ON...

 
LOGIN :

Register | Disclaimer

   EN    FR    IT 

 









Legend :    VFR   Marginal VFR   IFR   Intensive IFR   Very Intensive IFR
Visi :
Ceiling :
>= 8 km
>= 3000ft
5 to 8 km
1000 to 3000 ft
1500m to 5 km
500 to 1000 ft
800 to 1500m
200 to 500 ft
< 800m
< 200 ft
Symbols :   Thunderstorms  Fog  Heavy snow  Heavy precipitations  Wind > 20 kt






- Airport Elevation : 143 ft
- IATA code : DNA


RODN - Kadena Air Base

CURRENT METAR :
  • 091356Z AUTO 17009G16KT 10SM FEW210 28/24 A2978 RMK AO2 SLP089 T02770235 $

EXPIRED METARs :
  • 091256Z AUTO 16007KT 10SM CLR 29/26 A2978 RMK AO2 SLP089 T02870261 $
  • 091156Z AUTO 17008KT 10SM SCT019 29/26 A2975 RMK AO2 SLP079 60018 70020 T02860258 10319 20259 50011 $
  • 091126Z AUTO 16009KT 10SM SCT020 BKN026 29/26 A2975 RMK AO2 CIG 019V026 CIG 019 RWY05 SLP079 $

TAF AMD TAF RODN
Valid from the 09 at 10:00 until the 10 at 14:00 UTC


091025Z 0910/1014 18009KT 8000 -SHRA BR FEW010 BKN020 QNH2971INS
TEMPO 0910/0912 VRB20G25KT 8000 -TSRA BKN010CB
TEMPO 0922/1001 18015G20KT 8000 -SHRA BKN018
BECMG 1005/1006 19012KT 9999 NSW SCT020 SCT130 QNH2977INS TX32/1005Z TN27/0910Z
RJJJ FIR / Asia



MET'MAP, your aeronautical weather chart ! - Copyright ORBIFLY December 2007 - Disclaimer

ORBIFLY MET'MAP TEAM :

Programming & Development : Alexandra Zaïnal
Concept & original design : Baudouin d'Aumeries
Assistance for programming : Marc-Olivier Méhu
Technical & hardware support : Manuel Goepfert

Contact : metmap@orbifly.com




SOURCES & CREDITS :

   NOAA       Earth
Advisory